Humidity-temperature Sensor

Selected Measurement Type: Air Temperature

 
Air Temperature [°C]     6 entries per hour
Showing data from 7/2/2019 (00:00:00 Z) to 6/25/2019 (00:01:00 Z)
Previous Next [ Day | 3-Days | 7-Days ]
First Last
Prev [ Day | 3-Days | 7-Days ] Next
First Last

Start Time:     :
End Time:     :     
Time (in GMT) :00 :50 :40 :30 :20 :10
Previous Next [ Day | 3-Days | 7-Days ]
First Last
Prev [ Day | 3-Days | 7-Days ] Next
First Last


123 => good data
MM => data is determined as missing
-- => data not received/configured
Back to Top Back to Top
7/2/2019 00:00 to 23:10 25.22 25.03 25.32 25.22 25.14 24.98
7/1/2019 23:00 to 22:10 25.23 25.37 25.14 25.41 25.69 25.80
7/1/2019 22:00 to 21:10 25.71 25.82 25.88 25.88 25.87 26.07
7/1/2019 21:00 to 20:10 25.98 25.84 26.07 26.15 26.14 26.10
7/1/2019 20:00 to 19:10 26.23 26.53 26.48 26.28 26.45 26.30
7/1/2019 19:00 to 18:10 26.25 26.07 26.13 26.28 26.38 26.36
7/1/2019 18:00 to 17:10 26.68 26.45 26.49 26.34 26.31 26.51
7/1/2019 17:00 to 16:10 26.87 26.92 26.86 26.79 26.64 26.55
7/1/2019 16:00 to 15:10 26.58 26.61 26.58 26.73 26.79 27.02
7/1/2019 15:00 to 14:10 27.03 26.93 26.97 27.00 26.91 26.89
7/1/2019 14:00 to 13:10 26.90 26.78 26.80 27.06 26.96 26.86
7/1/2019 13:00 to 12:10 26.86 26.73 26.88 26.83 26.80 26.75
7/1/2019 12:00 to 11:10 26.86 26.84 26.87 26.76 26.74 26.78
7/1/2019 11:00 to 10:10 26.72 26.83 26.79 26.76 26.74 26.71
7/1/2019 10:00 to 9:10 26.76 26.65 26.45 26.17 26.04 26.01
7/1/2019 09:00 to 8:10 26.15 26.29 26.87 26.81 26.89 26.94
7/1/2019 08:00 to 7:10 26.89 26.85 26.90 26.90 26.82 26.88
7/1/2019 07:00 to 6:10 26.90 26.81 26.90 26.88 26.92 26.90
7/1/2019 06:00 to 5:10 26.83 26.86 26.80 26.86 26.84 26.80
7/1/2019 05:00 to 4:10 26.63 26.36 26.40 26.36 26.44 26.73
7/1/2019 04:00 to 3:10 26.69 26.64 26.63 26.59 26.62 26.58
7/1/2019 03:00 to 2:10 26.54 26.58 26.49 26.46 26.43 26.61
7/1/2019 02:00 to 1:10 26.44 26.44 26.51 26.28 26.58 26.62
7/1/2019 01:00 to 0:10 26.62 26.67 26.68 26.63 26.65 26.65
7/1/2019 00:00 to 23:10 26.75 26.65 26.62 26.63 26.66 26.61
6/30/2019 23:00 to 22:10 26.61 26.56 26.59 26.64 26.68 26.60
6/30/2019 22:00 to 21:10 26.59 26.54 26.46 26.52 26.53 26.68
6/30/2019 21:00 to 20:10 26.68 26.66 26.62 26.69 26.63 26.60
6/30/2019 20:00 to 19:10 26.53 26.48 26.49 26.57 26.59 26.61
6/30/2019 19:00 to 18:10 26.57 26.60 26.58 26.56 26.78 26.63
6/30/2019 18:00 to 17:10 26.67 26.58 26.51 26.49 26.56 26.64
6/30/2019 17:00 to 16:10 26.62 26.57 26.49 26.43 26.34 26.34
6/30/2019 16:00 to 15:10 26.35 26.28 26.17 26.15 26.08 26.04
6/30/2019 15:00 to 14:10 26.03 26.12 26.13 26.13 26.07 26.04
6/30/2019 14:00 to 13:10 26.00 26.01 25.90 25.89 25.88 25.82
6/30/2019 13:00 to 12:10 25.72 25.56 25.51 25.46 25.43 25.29
6/30/2019 12:00 to 11:10 25.25 25.26 25.18 25.15 25.15 25.10
6/30/2019 11:00 to 10:10 25.09 25.00 25.03 24.94 24.90 24.99
6/30/2019 10:00 to 9:10 24.88 24.99 24.81 24.74 24.69 24.67
6/30/2019 09:00 to 8:10 24.65 24.50 24.40 24.49 24.34 24.60
6/30/2019 08:00 to 7:10 24.67 24.77 24.77 24.61 24.85 25.07
6/30/2019 07:00 to 6:10 25.07 24.98 25.12 25.07 25.01 24.79
6/30/2019 06:00 to 5:10 24.71 24.72 24.39 24.43 24.23 24.40
6/30/2019 05:00 to 4:10 24.42 24.36 24.38 24.30 24.38 24.34
6/30/2019 04:00 to 3:10 24.32 24.37 24.47 25.00 27.24 27.24
6/30/2019 03:00 to 2:10 27.34 27.27 27.19 27.05 26.87 26.77
6/30/2019 02:00 to 1:10 26.79 26.84 26.72 26.56 26.33 26.22
6/30/2019 01:00 to 0:10 26.20 26.29 26.33 26.09 25.84 26.25
6/30/2019 00:00 to 23:10 27.12 26.98 27.03 27.22 27.25 27.19
6/29/2019 23:00 to 22:10 27.20 27.21 27.04 26.97 26.95 26.76
6/29/2019 22:00 to 21:10 26.34 26.30 26.42 26.41 26.33 26.23
6/29/2019 21:00 to 20:10 26.12 26.21 26.10 26.04 25.96 25.86
6/29/2019 20:00 to 19:10 25.79 25.79 25.57 25.60 25.59 25.55
6/29/2019 19:00 to 18:10 25.29 25.04 25.02 24.67 24.86 24.79
6/29/2019 18:00 to 17:10 25.08 25.12 25.19 25.25 25.44 26.31
6/29/2019 17:00 to 16:10 26.23 25.94 25.62 25.54 26.09 26.84
6/29/2019 16:00 to 15:10 26.84 26.91 27.02 26.87 27.21 27.00
6/29/2019 15:00 to 14:10 26.95 26.83 26.77 26.93 26.72 26.93
6/29/2019 14:00 to 13:10 26.82 26.99 26.78 26.80 26.66 26.46
6/29/2019 13:00 to 12:10 26.59 26.75 26.88 27.03 27.05 27.01
6/29/2019 12:00 to 11:10 27.04 27.04 27.02 27.00 26.91 26.90
6/29/2019 11:00 to 10:10 26.92 26.92 26.94 26.90 26.87 26.83
6/29/2019 10:00 to 9:10 26.96 26.94 26.94 26.99 26.91 26.88
6/29/2019 09:00 to 8:10 26.90 27.00 26.86 26.83 26.98 26.93
6/29/2019 08:00 to 7:10 27.06 27.07 27.00 26.90 26.82 26.69
6/29/2019 07:00 to 6:10 26.66 26.91 26.99 26.92 26.72 26.61
6/29/2019 06:00 to 5:10 26.42 26.01 26.33 26.24 26.26 26.38
6/29/2019 05:00 to 4:10 26.62 26.16 26.58 26.93 27.11 27.19
6/29/2019 04:00 to 3:10 26.96 26.56 26.81 26.77 26.79 26.93
6/29/2019 03:00 to 2:10 26.99 26.81 26.57 26.51 26.23 25.69
6/29/2019 02:00 to 1:10 25.49 25.43 25.17 25.19 25.04 25.08
6/29/2019 01:00 to 0:10 25.18 26.16 26.47 26.14 26.50 26.69
6/29/2019 00:00 to 23:10 26.58 26.61 26.53 26.73 26.55 26.53
6/28/2019 23:00 to 22:10 26.38 26.08 25.86 25.88 25.81 25.69
6/28/2019 22:00 to 21:10 25.53 25.27 25.37 25.26 25.40 25.55
6/28/2019 21:00 to 20:10 25.39 25.83 25.88 25.96 26.16 26.69
6/28/2019 20:00 to 19:10 26.56 26.61 26.70 26.50 26.19 25.56
6/28/2019 19:00 to 18:10 25.56 25.96 26.32 26.04 26.61 26.61
6/28/2019 18:00 to 17:10 26.36 26.58 26.28 26.16 26.37 26.73
6/28/2019 17:00 to 16:10 26.68 26.53 26.33 25.89 26.18 26.94
6/28/2019 16:00 to 15:10 26.94 26.87 26.99 27.11 27.26 26.87
6/28/2019 15:00 to 14:10 27.04 27.12 27.23 27.31 27.32 27.32
6/28/2019 14:00 to 13:10 27.29 27.30 27.25 27.29 27.21 27.16
6/28/2019 13:00 to 12:10 27.18 27.14 27.11 27.02 27.00 27.04
6/28/2019 12:00 to 11:10 27.00 27.01 27.01 27.10 27.03 26.99
6/28/2019 11:00 to 10:10 26.73 25.71 25.67 27.11 26.96 26.25
6/28/2019 10:00 to 9:10 26.67 26.94 26.39 26.92 26.59 26.96
6/28/2019 09:00 to 8:10 26.96 27.11 27.14 27.13 27.19 27.14
6/28/2019 08:00 to 7:10 27.12 27.12 27.18 27.18 27.29 27.13
6/28/2019 07:00 to 6:10 27.09 27.15 27.08 27.09 26.86 27.11
6/28/2019 06:00 to 5:10 27.14 27.17 27.15 26.87 27.29 27.03
6/28/2019 05:00 to 4:10 27.30 27.29 27.38 27.31 27.28 27.26
6/28/2019 04:00 to 3:10 27.27 27.26 27.14 27.09 27.01 27.02
6/28/2019 03:00 to 2:10 27.00 26.98 26.95 26.94 26.77 26.68
6/28/2019 02:00 to 1:10 26.66 26.65 26.62 26.61 26.54 26.50
6/28/2019 01:00 to 0:10 26.56 26.57 26.34 26.33 26.29 26.48
6/28/2019 00:00 to 23:10 26.52 26.59 26.59 26.44 26.19 26.37
6/27/2019 23:00 to 22:10 26.38 26.05 25.92 25.90 26.12 25.98
6/27/2019 22:00 to 21:10 25.87 25.87 25.86 25.71 25.75 25.49
6/27/2019 21:00 to 20:10 25.12 25.03 25.10 24.97 24.94 25.08
6/27/2019 20:00 to 19:10 25.05 24.99 25.08 25.14 25.07 25.07
6/27/2019 19:00 to 18:10 25.05 25.20 25.08 25.17 25.17 24.97
6/27/2019 18:00 to 17:10 25.05 25.02 24.89 24.99 25.22 25.19
6/27/2019 17:00 to 16:10 25.15 25.29 25.45 25.22 25.27 25.28
6/27/2019 16:00 to 15:10 25.16 25.03 25.00 25.10 24.99 25.12
6/27/2019 15:00 to 14:10 25.18 25.04 25.06 25.12 25.32 25.03
6/27/2019 14:00 to 13:10 24.90 25.03 24.93 24.72 25.31 25.53
6/27/2019 13:00 to 12:10 25.74 25.37 25.51 25.70 25.96 26.07
6/27/2019 12:00 to 11:10 26.18 26.41 26.32 26.35 26.37 26.51
6/27/2019 11:00 to 10:10 26.56 26.33 26.34 26.17 25.85 25.76
6/27/2019 10:00 to 9:10 25.56 25.42 25.93 26.68 26.14 26.21
6/27/2019 09:00 to 8:10 26.17 26.18 26.23 26.26 26.31 26.44
6/27/2019 08:00 to 7:10 26.41 26.62 26.86 26.88 27.03 27.07
6/27/2019 07:00 to 6:10 27.02 27.11 26.91 26.84 26.98 26.75
6/27/2019 06:00 to 5:10 26.73 26.88 26.72 26.61 26.26 26.15
6/27/2019 05:00 to 4:10 25.97 25.90 25.89 25.66 25.63 25.66
6/27/2019 04:00 to 3:10 25.82 25.91 25.72 25.81 25.95 26.13
6/27/2019 03:00 to 2:10 26.20 26.14 26.35 26.31 26.41 26.61
6/27/2019 02:00 to 1:10 26.54 26.61 26.74 26.61 26.60 26.55
6/27/2019 01:00 to 0:10 26.44 26.57 26.44 26.49 26.48 26.15
6/27/2019 00:00 to 23:10 26.34 26.42 26.48 26.45 26.47 26.53
6/26/2019 23:00 to 22:10 26.55 26.42 26.37 26.21 26.26 26.25
6/26/2019 22:00 to 21:10 26.23 26.27 26.17 26.13 26.23 26.18
6/26/2019 21:00 to 20:10 26.17 26.01 25.81 25.79 25.88 25.77
6/26/2019 20:00 to 19:10 25.85 25.76 26.06 25.91 25.73 25.53
6/26/2019 19:00 to 18:10 25.63 25.57 25.49 25.84 25.69 25.83
6/26/2019 18:00 to 17:10 25.83 26.14 26.33 26.28 26.32 26.34
6/26/2019 17:00 to 16:10 26.08 26.13 26.07 26.11 26.14 26.23
6/26/2019 16:00 to 15:10 26.08 26.16 26.18 26.13 25.98 25.94
6/26/2019 15:00 to 14:10 25.79 25.69 25.82 25.70 25.64 25.59
6/26/2019 14:00 to 13:10 25.64 25.57 25.57 25.64 25.60 25.83
6/26/2019 13:00 to 12:10 25.78 25.76 26.33 26.44 26.29 26.20
6/26/2019 12:00 to 11:10 26.24 26.33 26.72 26.74 26.75 26.71
6/26/2019 11:00 to 10:10 26.75 26.58 26.42 26.35 26.32 26.46
6/26/2019 10:00 to 9:10 26.42 26.61 26.87 26.78 26.75 26.84
6/26/2019 09:00 to 8:10 26.81 26.83 26.89 26.82 27.02 26.89
6/26/2019 08:00 to 7:10 26.96 26.89 26.92 26.91 26.94 26.90
6/26/2019 07:00 to 6:10 26.90 26.97 26.89 26.88 26.90 26.87
6/26/2019 06:00 to 5:10 26.88 26.86 26.93 26.91 26.97 26.90
6/26/2019 05:00 to 4:10 26.89 26.86 26.81 26.85 26.77 26.81
6/26/2019 04:00 to 3:10 26.67 26.58 26.71 26.62 26.58 26.53
6/26/2019 03:00 to 2:10 26.59 26.28 26.40 26.21 26.13 26.42
6/26/2019 02:00 to 1:10 26.71 26.70 26.69 26.65 26.61 26.67
6/26/2019 01:00 to 0:10 26.52 26.50 26.23 26.32 26.01 25.72
6/26/2019 00:00 to 23:10 25.90 26.31 27.11 27.04 27.07 27.07
6/25/2019 23:00 to 22:10 27.21 27.11 27.08 27.09 27.17 27.21
6/25/2019 22:00 to 21:10 27.02 27.05 27.02 27.04 27.06 27.04
6/25/2019 21:00 to 20:10 27.00 27.08 27.14 27.11 27.14 27.07
6/25/2019 20:00 to 19:10 27.05 26.97 26.99 27.12 27.01 27.02
6/25/2019 19:00 to 18:10 27.03 27.02 26.98 26.97 26.96 26.97
6/25/2019 18:00 to 17:10 26.94 26.83 26.88 26.89 26.86 26.86
6/25/2019 17:00 to 16:10 26.90 26.92 26.95 26.90 27.03 26.91
6/25/2019 16:00 to 15:10 26.81 26.90 26.83 26.85 26.82 26.82
6/25/2019 15:00 to 14:10 26.86 26.83 26.71 26.69 26.60 26.54
6/25/2019 14:00 to 13:10 26.58 26.55 26.48 26.48 26.59 26.66
6/25/2019 13:00 to 12:10 26.74 26.67 26.65 26.74 26.66 26.61
6/25/2019 12:00 to 11:10 26.56 26.64 26.56 26.61 26.59 26.54
6/25/2019 11:00 to 10:10 26.53 26.55 26.56 26.53 26.60 26.63
6/25/2019 10:00 to 9:10 26.65 26.59 26.62 26.54 26.71 26.61
6/25/2019 09:00 to 8:10 26.66 26.64 26.63 26.59 26.51 26.56
6/25/2019 08:00 to 7:10 26.61 26.55 26.55 26.52 26.65 26.67
6/25/2019 07:00 to 6:10 26.72 26.69 26.62 26.54 26.51 26.58
6/25/2019 06:00 to 5:10 26.68 26.69 26.68 26.72 26.71 26.68
6/25/2019 05:00 to 4:10 26.68 26.71 26.73 26.75 26.75 26.68
6/25/2019 04:00 to 3:10 26.65 26.70 26.75 26.67 26.74 26.67
6/25/2019 03:00 to 2:10 26.78 26.67 26.63 26.54 26.50 26.46
6/25/2019 02:00 to 1:10 26.34 26.29 26.30 26.35 26.32 26.32
6/25/2019 01:00 to 0:10 26.74 26.61 26.38 26.41 26.67 26.66